Startpagina
METAR-TAF:

METAR-TAF

Vliegvelden :

Recife, Pernambuco, Brazilië

Aeroporto Internacional do Recife

breedte: 08-08S, lengte: 034-55W, hoogte: 19 m

Actueel weer

Dit bericht is 42 minuten geleden gemaakt, om 00:00 UTC
Wind 16 kt uit het zuidzuidoosten
Temperatuur 25°C
Vochtigheid 83%
Druk 1018 hPa
Zicht 10 km of meer
Verspreide wolken op 2200 ft
Gebroken wolken op 4000 ft

METAR: SBRF 260000Z 16016KT 9999 SCT022 BKN040 25/22 Q1018

Tijdstip: 21:42 (00:42 UTC)

Verwachting

Dit bericht is 3 uur en het 42 minuten geleden gemaakt, om 21:00 UTC
Verwachting geldig van 26 om 00 UTC tot 26 om 24 UTC
Wind 8 kt uit het zuidzuidoosten
Zicht: 9000 m
Verspreide wolken op 1500 ft
Tijdelijke
van 26 om 00 UTC tot 26 om 08 UTC
Zicht: 6000 m
Weinig wolken op 1000 ft
Gebroken wolken op 1500 ft
regenbuien
Wijzigt naar
van 26 om 11 UTC tot 26 om 12 UTC
Wind 13 kt uit het zuidzuidoosten

TAF: SBRF 252100Z 2600/2624 16008KT 9000 SCT015 TN23/2609Z TX28/2616Z TEMPO 2600/2608 6000 SHRA FEW010 BKN015 BECMG 2611/2612 16013KT RMK PCN

Waarnemingen en weersverwachtingen van meer dan 4000 vliegvelden (METAR en TAF).

De beschikbare stations zijn de gele en rode punten op de kaart.

Ga met uw muis naar het station om de naam te zien.

Klik dan om waarnemingen en weersverwachtingen te zien.

kaart wijzigen: klik op de groene knoppen met een zwart kruis om in te zoomen, op de groene knop met een streepje om uit te zoomen of op de groene pijlen voor aangrenzende kaarten.


METAR-TAF: